Webcam Flughafen St.Gallen-Altenrhein

Live-Bilder und Zeitraffer LSZR / ACH.

 

Live aus Altenrhein
LIVE
LSZR 091620Z AUTO VRB02KT CAVOK 30/13 Q1016
Zeitraffer heute
2020-08-09 00:14:26
LSZR 082150Z AUTO VRB01KT CAVOK 19/16 Q1020